NEODyS-2

Near Earth Objects - Dynamic Site
NEODyS ∴ Observatories ∴ Site 691 ∴ Obs & residuals
Contact »
691  ▹ 
OBSERVATIONS AND RESIDUALS

691-Steward Observatory, Kitt Peak-Spacewatch

Detections | Residuals | Detections & Residuals

[1-200] [201-400] [401-600] [601-800] [801-1000] [1001-1200] [1201-1400] [1401-1600] [1601-1800] [1801-2000] [2001-2200] [2201-2400] [2401-2600] [2601-2800] [2801-3000] [3001-3200] [3201-3400] [3401-3600] [3601-3800] [3801-4000] [4001-4200] [4201-4400] [4401-4600] [4601-4800] [4801-5000] [5001-5200] [5201-5400] [5401-5600] [5601-5800] [5801-6000] [6001-6200] [6201-6400] [6401-6600] [6601-6800] [6801-7000] [7001-7200] [7201-7400] [7401-7600] [7601-7800] [7801-8000] [8001-8200] [8201-8400] [8401-8600] [8601-8800] [8801-9000] [9001-9200] [9201-9400] [9401-9600] [9601-9800] [9801-10000] [10001-10200] [10201-10400] [10401-10600] [10601-10800] [10801-11000] [11001-11200] [11201-11400] [11401-11600] [11601-11800] [11801-12000] [12001-12200] [12201-12400] [12401-12600] [12601-12800] [12801-13000] [13001-13200] [13201-13400] [13401-13600] [13601-13800] [13801-14000] [14001-14200] [14201-14400] [14401-14600] [14601-14800] [14801-15000] [15001-15200] [15201-15400] [15401-15600] [15601-15800] [15801-16000] [16001-16200] [16201-16400] [16401-16600] [16601-16800] [16801-17000] [17001-17200] [17201-17400] [17401-17600] [17601-17800] [17801-18000] [18001-18200] [18201-18400] [18401-18600] [18601-18800] [18801-19000] [19001-19200] [19201-19400] [19401-19600] [19601-19800] [19801-20000] [20001-20200] [20201-20400] [20401-20600] [20601-20800] [20801-21000] [21001-21200] [21201-21400] [21401-21600] [21601-21800] [21801-22000] [22001-22200] [22201-22400] [22401-22600] [22601-22800] [22801-23000] [23001-23200] [23201-23400] [23401-23600] [23601-23800] [23801-24000] [24001-24200] [24201-24400] [24401-24600] [24601-24800] [24801-25000] [25001-25200] [25201-25400] [25401-25600] [25601-25800] [25801-26000] [26001-26200] [26201-26400] [26401-26600] [26601-26800] [26801-27000] [27001-27200] [27201-27400] [27401-27600] [27601-27800] [27801-28000] [28001-28200] [28201-28400] [28401-28600] [28601-28800] [28801-29000] [29001-29200] [29201-29400] [29401-29600] [29601-29800] [29801-30000] [30001-30200] [30201-30400] [30401-30600] [30601-30800] [30801-31000] [31001-31200] [31201-31400] [31401-31600] [31601-31800] [31801-32000] [32001-32200] [32201-32400] [32401-32600] [32601-32800] [32801-33000] [33001-33200] [33201-33400] [33401-33600] [33601-33800] [33801-34000] [34001-34200] [34201-34400] [34401-34600] [34601-34800] [34801-35000] [35001-35200] [35201-35400] [35401-35600] [35601-35800] [35801-36000] [36001-36200] [36201-36400] [36401-36600] [36601-36800] [36801-37000] [37001-37200] [37201-37400] [37401-37600] [37601-37800] [37801-38000] [38001-38200] [38201-38400] [38401-38600] [38601-38800] [38801-39000] [39001-39200] [39201-39400] [39401-39600] [39601-39800] [39801-40000] [40001-40200] [40201-40400] [40401-40600] [40601-40800] [40801-41000] [41001-41200] [41201-41400] [41401-41600] [41601-41800] [41801-42000] [42001-42200] [42201-42400] [42401-42600] [42601-42800] [42801-43000] [43001-43200] [43201-43400] [43401-43600] [43601-43800] [43801-44000] [44001-44200] [44201-44400] [44401-44600] [44601-44800] [44801-45000] [45001-45200] [45201-45400] [45401-45600] [45601-45800] [45801-46000] [46001-46200] [46201-46400] [46401-46600] [46601-46800] [46801-47000] [47001-47200] [47201-47400] [47401-47600] [47601-47800] [47801-48000] [48001-48200] [48201-48400] [48401-48600] [48601-48800] [48801-49000] [49001-49200] [49201-49400] [49401-49600] [49601-49800] [49801-50000] [50001-50200] [50201-50388]

Designation T Tech N Date Right Ascension Declination Apparent Magnitude Star Catalog Site code χ Used A Used M
yr-mo-day precision hr:min:sec precision rms F bias residual deg min sec precision rms F bias residual mag/col rms residual
1998SH2 O C H 2016-03-11.22203 1.000E-05 11:26:08.670 1.500E-01 0.500 F 0.228 0.817 +05° 29' 02.60" 1.000E-01 0.500 F 0.287 -0.507 o 691 1.93 Yes No
2016EV27 O C 2016-03-11.25128 1.000E-05 11:16:15.670 1.500E-01 0.500 F 0.096 -0.266 -11° 47' 23.30" 1.000E-01 0.500 F 0.034 0.120 20.6 V 0.70 -0.64 o 691 0.59 Yes Yes
2016EV27 O C 2016-03-11.25589 1.000E-05 11:16:15.940 1.500E-01 0.500 F 0.096 -0.227 -11° 47' 22.10" 1.000E-01 0.500 F 0.034 -0.196 20.6 V 0.70 -0.64 o 691 0.61 Yes Yes
2016EV27 O C 2016-03-11.26051 1.000E-05 11:16:16.210 1.500E-01 0.500 F 0.096 -0.187 -11° 47' 20.20" 1.000E-01 0.500 F 0.034 0.177 20.4 V 0.70 -0.84 o 691 0.52 Yes Yes
2016ES28 O C H 2016-03-11.26386 1.000E-05 11:38:52.070 1.500E-01 0.500 F 0.292 0.328 -06° 21' 08.50" 1.000E-01 0.500 F 0.103 -0.365 o 691 1.09 Yes No
2016ES28 O C H 2016-03-11.26883 1.000E-05 11:38:51.040 1.500E-01 0.500 F 0.292 0.026 -06° 20' 38.60" 1.000E-01 0.500 F 0.103 -0.124 o 691 0.28 Yes No
2016EK27 O C 2016-03-11.31972 1.000E-05 12:11:21.200 1.500E-01 0.500 F 0.386 -0.463 -25° 27' 59.60" 1.000E-01 0.500 F 0.268 0.253 20.3 V 0.70 -0.47 o 691 1.06 Yes Yes
2016EK27 O C 2016-03-11.32290 1.000E-05 12:11:21.480 1.500E-01 0.500 F 0.386 -0.221 -25° 28' 04.30" 1.000E-01 0.500 F 0.268 0.032 20.5 V 0.70 -0.27 o 691 0.45 Yes Yes
2016EK27 O C 2016-03-11.32608 1.000E-05 12:11:21.700 1.500E-01 0.500 F 0.386 -0.790 -25° 28' 08.60" 1.000E-01 0.500 F 0.268 0.207 20.4 V 0.70 -0.37 o 691 1.64 Yes Yes
2016EF86 O C H 2016-03-11.36707 1.000E-05 13:07:35.610 1.500E-01 0.500 F 0.183 -0.371 -03° 57' 44.70" 1.000E-01 0.500 F 0.110 -0.569 o 691 1.37 Yes No
2016EF86 O C H 2016-03-11.36955 1.000E-05 13:07:36.710 1.500E-01 0.500 F 0.183 -1.009 -03° 57' 53.50" 1.000E-01 0.500 F 0.110 0.173 o 691 2.07 Yes No
2016EF86 O C H 2016-03-11.37204 1.000E-05 13:07:37.920 1.500E-01 0.500 F 0.183 -0.070 -03° 58' 03.50" 1.000E-01 0.500 F 0.110 -0.247 o 691 0.52 Yes No
2016EO84 O C H 2016-03-11.37524 1.000E-05 13:25:34.380 1.500E-01 0.500 F 0.155 0.295 -17° 34' 11.20" 1.000E-01 0.500 F -0.049 -0.950 o 691 2.01 Yes No
2016EO84 O C H 2016-03-11.37772 1.000E-05 13:25:33.200 1.500E-01 0.500 F 0.155 0.724 -17° 34' 10.20" 1.000E-01 0.500 F -0.049 -0.353 o 691 1.63 Yes No
2016EO84 O C H 2016-03-11.38021 1.000E-05 13:25:31.950 1.500E-01 0.500 F 0.155 0.223 -17° 34' 10.20" 1.000E-01 0.500 F -0.049 -0.761 o 691 1.60 Yes No
2016EW85 O C H 2016-03-11.38583 1.000E-05 11:49:27.710 1.500E-01 0.500 F 0.338 0.304 +02° 34' 16.10" 1.000E-01 0.500 F 0.358 -0.697 o 691 1.55 Yes No
2016EW85 O C H 2016-03-11.38832 1.000E-05 11:49:26.990 1.500E-01 0.500 F 0.338 0.034 +02° 34' 10.50" 1.000E-01 0.500 F 0.358 -0.690 o 691 1.41 Yes No
2016EW85 O C H 2016-03-11.39080 1.000E-05 11:49:26.290 1.500E-01 0.500 F 0.338 0.016 +02° 34' 04.90" 1.000E-01 0.500 F 0.358 -0.699 o 691 1.43 Yes No
2016ER155 O C H 2016-03-12.16899 1.000E-05 11:17:07.920 1.500E-01 0.500 F 0.171 -0.251 +20° 31' 03.40" 1.000E-01 0.500 F 0.276 -0.371 o 691 0.90 Yes No
2016AZ8 O C H 2016-03-12.17229 1.000E-05 10:58:08.520 1.500E-01 0.500 F 0.084 -0.361 +26° 24' 56.80" 1.000E-01 0.500 F 0.148 0.098 20.8 V 0.70 -0.12 o 691 0.75 Yes Yes
2015YE21 O C H 2016-03-12.17788 1.000E-05 08:36:48.840 1.500E-01 0.500 F -0.040 -0.560 -11° 30' 41.60" 1.000E-01 0.500 F 0.103 -0.690 21.2 V 0.70 0.02 o 691 1.81 Yes Yes
2016ER155 O C H 2016-03-12.18466 1.000E-05 11:17:04.560 1.500E-01 0.500 F 0.171 0.284 +20° 29' 49.10" 1.000E-01 0.500 F 0.276 1.231 o 691 2.55 Yes No
2016AZ8 O C H 2016-03-12.18796 1.000E-05 10:58:06.790 1.500E-01 0.500 F 0.084 0.622 +26° 24' 54.30" 1.000E-01 0.500 F 0.148 -1.370 o 691 3.02 Yes No
2015YE21 O C H 2016-03-12.19357 1.000E-05 08:36:48.790 1.500E-01 0.500 F -0.040 0.862 -11° 30' 31.60" 1.000E-01 0.500 F 0.103 0.644 20.7 V 0.70 -0.49 o 691 2.19 Yes Yes
2016ER155 O C H 2016-03-12.19927 1.000E-05 11:17:01.310 1.500E-01 0.500 F 0.171 -0.704 +20° 28' 36.30" 1.000E-01 0.500 F 0.276 -0.714 20.5 V 0.70 -0.14 o 691 2.02 Yes Yes
2016AZ8 O C H 2016-03-12.20257 1.000E-05 10:58:05.070 1.500E-01 0.500 F 0.084 0.184 +26° 24' 54.00" 1.000E-01 0.500 F 0.148 -0.645 20.6 V 0.70 -0.32 o 691 1.34 Yes Yes
2015YE21 O C H 2016-03-12.20817 1.000E-05 08:36:48.580 1.500E-01 0.500 F -0.040 -0.227 -11° 30' 24.00" 1.000E-01 0.500 F 0.103 0.149 20.8 V 0.70 -0.39 o 691 0.55 Yes Yes
1998SH2 O C H 2016-03-12.21460 1.000E-05 11:24:22.060 1.500E-01 0.500 F 0.129 -0.152 +05° 38' 34.30" 1.000E-01 0.500 F 0.306 0.295 21.0 V 0.70 -0.03 o 691 0.67 Yes Yes
1998SH2 O C H 2016-03-12.22835 1.000E-05 11:24:20.470 1.500E-01 0.500 F 0.129 -0.636 +05° 38' 42.80" 1.000E-01 0.500 F 0.306 0.733 21.4 V 0.70 0.37 o 691 1.95 Yes Yes
1998SH2 O C H 2016-03-12.24283 1.000E-05 11:24:18.830 1.500E-01 0.500 F 0.129 -0.572 +05° 38' 51.00" 1.000E-01 0.500 F 0.306 0.449 21.3 V 0.70 0.27 o 691 1.46 Yes Yes
2016EP85 O C H 2016-03-12.41950 1.000E-05 14:14:17.440 1.500E-01 0.500 F 0.195 0.747 -07° 39' 02.00" 1.000E-01 0.500 F 0.070 -0.829 o 691 2.26 Yes No
2016EP85 O C H 2016-03-12.43503 1.000E-05 14:14:18.690 1.500E-01 0.500 F 0.195 0.102 -07° 39' 08.00" 1.000E-01 0.500 F 0.070 -0.380 o 691 0.80 Yes No
2016EP85 O C H 2016-03-12.44812 1.000E-05 14:14:19.680 1.500E-01 0.500 F 0.195 -1.383 -07° 39' 14.90" 1.000E-01 0.500 F 0.070 -1.865 o 691 4.60 No No
2016EC27 O C H 2016-03-13.18431 1.000E-05 08:26:57.210 1.500E-01 0.500 F 0.066 0.835 +18° 01' 01.50" 1.000E-01 0.500 F 0.204 -0.115 21.1 V 0.70 -0.34 o 691 1.71 Yes Yes
2016EC27 O C H 2016-03-13.18841 1.000E-05 08:26:57.450 1.500E-01 0.500 F 0.066 -0.698 +18° 00' 58.10" 1.000E-01 0.500 F 0.204 0.382 21.3 V 0.70 -0.14 o 691 1.61 Yes Yes
2016EC27 O C H 2016-03-13.19252 1.000E-05 08:26:57.900 1.500E-01 0.500 F 0.066 0.752 +18° 00' 53.60" 1.000E-01 0.500 F 0.204 -0.205 21.2 V 0.70 -0.24 o 691 1.58 Yes Yes
2002HK12 O C 2016-03-13.26097 1.000E-05 12:04:42.640 1.500E-01 0.500 F 0.280 -0.485 -04° 07' 14.80" 1.000E-01 0.500 F 0.108 -0.179 20.3 V 0.70 -0.48 o 691 1.04 Yes Yes
2002HK12 O C 2016-03-13.27097 1.000E-05 12:04:41.850 1.500E-01 0.500 F 0.280 -0.400 -04° 07' 10.40" 1.000E-01 0.500 F 0.108 0.192 20.7 V 0.70 -0.08 o 691 0.89 Yes Yes
2002HK12 O C 2016-03-13.28074 1.000E-05 12:04:41.090 1.500E-01 0.500 F 0.280 -0.128 -04° 07' 06.60" 1.000E-01 0.500 F 0.108 0.053 21.2 V 0.70 0.42 o 691 0.28 Yes Yes
2016EO84 O C H 2016-03-13.38202 1.000E-05 13:09:35.810 1.500E-01 0.500 F 0.467 -1.148 -17° 24' 48.30" 1.000E-01 0.500 F 0.006 -0.618 o 691 2.63 Yes No
2016EO84 O C H 2016-03-13.40214 1.000E-05 13:09:25.860 1.500E-01 0.500 F 0.421 -0.754 -17° 24' 40.20" 1.000E-01 0.500 F -0.028 -0.424 20.5 V 0.70 -0.09 o 691 1.75 Yes Yes
2016ED28 O C 2016-03-13.40439 1.000E-05 13:00:01.180 1.500E-01 0.500 F 0.159 -1.124 -19° 49' 06.90" 1.000E-01 0.500 F -0.176 0.148 20.4 V 0.70 0.36 o 691 2.32 Yes Yes
2016EO84 O C H 2016-03-13.41673 1.000E-05 13:09:18.650 1.500E-01 0.500 F 0.421 -0.458 -17° 24' 33.70" 1.000E-01 0.500 F -0.028 0.189 20.8 V 0.70 0.21 o 691 1.00 Yes Yes
2016ED28 O C 2016-03-13.41899 1.000E-05 13:00:09.230 1.500E-01 0.500 F 0.159 -0.082 -19° 49' 07.50" 1.000E-01 0.500 F -0.176 0.113 20.0 V 0.70 -0.04 o 691 0.29 Yes Yes
2016ED28 O C 2016-03-13.42508 1.000E-05 13:00:12.570 1.500E-01 0.500 F 0.159 0.025 -19° 49' 07.70" 1.000E-01 0.500 F -0.176 0.092 19.6 V 0.70 -0.44 o 691 0.19 Yes Yes
2016BC14 O C H 2016-03-13.44010 1.000E-05 16:00:52.640 1.500E-01 0.500 F 0.176 -0.216 -00° 34' 55.20" 1.000E-01 0.500 F 0.153 -0.102 17.3 V 0.70 0.02 o 691 0.48 Yes Yes
2016BC14 O C H 2016-03-13.45166 1.000E-05 16:00:53.590 1.500E-01 0.500 F 0.176 -0.166 -00° 35' 47.50" 1.000E-01 0.500 F 0.153 -0.114 17.4 V 0.70 0.12 o 691 0.41 Yes Yes
2016BC14 O C H 2016-03-13.46335 1.000E-05 16:00:54.540 1.500E-01 0.500 F 0.176 -0.087 -00° 36' 40.50" 1.000E-01 0.500 F 0.153 -0.180 17.4 V 0.70 0.12 o 691 0.40 Yes Yes
2015FJ36 O C 2016-03-14.23629 1.000E-05 09:41:08.030 1.500E-01 0.500 F 0.128 -0.053 -06° 00' 27.00" 1.000E-01 0.500 F -0.027 0.088 20.3 V 0.70 -0.42 o 691 0.21 Yes Yes
2015FJ36 O C 2016-03-14.24050 1.000E-05 09:41:07.650 1.500E-01 0.500 F 0.128 0.041 -06° 00' 20.20" 1.000E-01 0.500 F -0.027 1.170 20.0 V 0.70 -0.72 o 691 2.35 Yes Yes
2015FJ36 O C 2016-03-14.24470 1.000E-05 09:41:07.260 1.500E-01 0.500 F 0.128 -0.030 -06° 00' 15.60" 1.000E-01 0.500 F -0.027 0.065 20.2 V 0.70 -0.52 o 691 0.14 Yes Yes
2005EW169 O C H 2016-03-14.25009 1.000E-05 12:28:15.340 1.500E-01 0.500 F 0.118 -0.006 -05° 44' 34.00" 1.000E-01 0.500 F 0.101 -0.301 20.8 V 0.70 0.14 o 691 0.60 Yes Yes
2005EW169 O C H 2016-03-14.25477 1.000E-05 12:28:14.910 1.500E-01 0.500 F 0.118 -0.045 -05° 44' 30.50" 1.000E-01 0.500 F 0.101 0.114 21.0 V 0.70 0.34 o 691 0.24 Yes Yes
2005EW169 O C H 2016-03-14.25945 1.000E-05 12:28:14.470 1.500E-01 0.500 F 0.118 -0.228 -05° 44' 27.70" 1.000E-01 0.500 F 0.101 -0.172 21.1 V 0.70 0.44 o 691 0.57 Yes Yes
2016EF156 O C H 2016-03-14.28357 1.000E-05 12:34:19.680 1.500E-01 0.500 F 0.137 0.183 +03° 16' 47.80" 1.000E-01 0.500 F 0.251 -1.041 o 691 2.18 Yes No
2016EF156 O C H 2016-03-14.28492 1.000E-05 12:34:17.540 1.500E-01 0.500 F 0.137 -0.207 +03° 16' 21.30" 1.000E-01 0.500 F 0.251 -0.580 o 691 1.28 Yes No
2016EF156 O C H 2016-03-14.28625 1.000E-05 12:34:15.470 1.500E-01 0.500 F 0.137 0.010 +03° 15' 53.80" 1.000E-01 0.500 F 0.251 -1.499 o 691 3.09 Yes No
2016EK156 O C H 2016-03-14.32814 1.000E-05 13:41:04.670 1.500E-01 0.500 F -0.011 0.311 +16° 46' 27.90" 1.000E-01 0.500 F 0.163 -1.305 21.2 V 0.70 0.16 o 691 2.73 Yes Yes
2016EK156 O C H 2016-03-14.33133 1.000E-05 13:41:04.840 1.500E-01 0.500 F -0.011 0.684 +16° 46' 14.30" 1.000E-01 0.500 F 0.163 -0.041 21.0 V 0.70 -0.04 o 691 1.46 Yes Yes
2016EK156 O C H 2016-03-14.33451 1.000E-05 13:41:04.920 1.500E-01 0.500 F -0.011 -0.215 +16° 46' 00.90" 1.000E-01 0.500 F 0.163 1.390 21.1 V 0.70 0.06 o 691 2.85 Yes Yes
2016EJ156 O C 2016-03-14.34664 1.000E-05 09:17:52.260 1.500E-01 0.500 F 0.093 -0.021 +04° 05' 10.40" 1.000E-01 0.500 F 0.112 -0.118 20.6 V 0.70 0.10 o 691 0.24 Yes Yes
2016EJ156 O C 2016-03-14.34919 1.000E-05 09:17:53.300 1.500E-01 0.500 F 0.093 0.013 +04° 04' 53.80" 1.000E-01 0.500 F 0.112 0.164 20.6 V 0.70 0.10 o 691 0.33 Yes Yes
2016EJ156 O C 2016-03-14.35173 1.000E-05 09:17:54.440 1.500E-01 0.500 F 0.093 1.576 +04° 04' 35.60" 1.000E-01 0.500 F 0.112 -1.223 20.7 V 0.70 0.20 o 691 3.92 No Yes
2016EN156 O C 2016-03-14.35580 1.000E-05 11:00:46.140 1.500E-01 0.500 F 0.007 0.185 -06° 15' 06.00" 1.000E-01 0.500 F 0.069 0.085 20.0 V 0.70 -0.34 o 691 0.41 Yes Yes
2016EN156 O C 2016-03-14.35926 1.000E-05 11:00:47.340 1.500E-01 0.500 F 0.007 0.288 -06° 15' 04.90" 1.000E-01 0.500 F 0.069 0.099 19.8 V 0.70 -0.54 o 691 0.62 Yes Yes
2016EN156 O C 2016-03-14.36272 1.000E-05 11:00:48.490 1.500E-01 0.500 F 0.007 -0.443 -06° 15' 03.90" 1.000E-01 0.500 F 0.069 -0.004 20.1 V 0.70 -0.24 o 691 0.90 Yes Yes
1998SH2 O C H 2016-03-14.37763 1.000E-05 11:20:17.560 1.500E-01 0.500 F 0.125 2.258 +06° 00' 04.40" 1.000E-01 0.500 F 0.306 -1.347 o 691 5.24 No No
1998SH2 O C H 2016-03-14.38304 1.000E-05 11:20:16.750 1.500E-01 0.500 F 0.125 -0.062 +06° 00' 08.30" 1.000E-01 0.500 F 0.306 -0.736 o 691 1.48 Yes No
1998SH2 O C H 2016-03-14.38845 1.000E-05 11:20:16.110 1.500E-01 0.500 F 0.125 0.149 +06° 00' 11.60" 1.000E-01 0.500 F 0.306 -0.723 o 691 1.48 Yes No
2016EL157 O C H 2016-03-14.42349 1.000E-05 11:11:07.200 1.500E-01 0.500 F 0.286 -0.325 -05° 56' 54.50" 1.000E-01 0.500 F 0.065 -0.393 20.0 V 0.70 -0.01 o 691 1.05 Yes Yes
2016EL157 O C H 2016-03-14.42506 1.000E-05 11:11:09.080 1.500E-01 0.500 F 0.286 1.112 -05° 56' 48.70" 1.000E-01 0.500 F 0.065 0.124 19.7 V 0.70 -0.31 o 691 2.33 Yes Yes
2016EL157 O C H 2016-03-14.42662 1.000E-05 11:11:10.770 1.500E-01 0.500 F 0.286 -0.150 -05° 56' 43.50" 1.000E-01 0.500 F 0.065 0.070 20.0 V 0.70 -0.01 o 691 0.34 Yes Yes
2012WK4 O C H 2016-03-14.42984 1.000E-05 11:25:15.980 1.500E-01 0.500 F 0.311 -0.490 +09° 15' 46.20" 1.000E-01 0.500 F 0.052 0.699 21.6 V 0.70 0.66 o 691 1.72 Yes Yes
2012WK4 O C H 2016-03-14.43307 1.000E-05 11:25:15.600 1.500E-01 0.500 F 0.311 0.440 +09° 15' 48.90" 1.000E-01 0.500 F 0.052 -0.951 o 691 2.11 Yes No
2012WK4 O C H 2016-03-14.43630 1.000E-05 11:25:15.150 1.500E-01 0.500 F 0.311 0.330 +09° 15' 54.00" 1.000E-01 0.500 F 0.052 -0.200 21.4 V 0.70 0.46 o 691 0.78 Yes Yes
Gordonmoore O C 2016-03-14.43991 1.000E-05 11:27:52.540 1.500E-01 0.500 F 0.238 0.482 +21° 11' 34.40" 1.000E-01 0.500 F 0.220 -0.746 18.2 V 0.70 0.09 o 691 1.78 Yes Yes
2016DV21 O C 2016-03-14.43991 1.000E-05 11:26:13.750 1.500E-01 0.500 F 0.238 -0.246 +21° 31' 04.40" 1.000E-01 0.500 F 0.220 0.181 20.2 V 0.70 -0.26 o 691 0.62 Yes Yes
Gordonmoore O C 2016-03-14.44268 1.000E-05 11:27:52.300 1.500E-01 0.500 F 0.238 -0.175 +21° 11' 37.60" 1.000E-01 0.500 F 0.220 0.226 18.3 V 0.70 0.19 o 691 0.57 Yes Yes
2016DV21 O C 2016-03-14.44268 1.000E-05 11:26:13.930 1.500E-01 0.500 F 0.238 -0.014 +21° 31' 15.10" 1.000E-01 0.500 F 0.220 -0.191 20.1 V 0.70 -0.36 o 691 0.39 Yes Yes
Gordonmoore O C 2016-03-14.44546 1.000E-05 11:27:52.100 1.500E-01 0.500 F 0.238 -0.266 +21° 11' 39.70" 1.000E-01 0.500 F 0.220 0.091 18.3 V 0.70 0.19 o 691 0.56 Yes Yes
2016DV21 O C 2016-03-14.44546 1.000E-05 11:26:14.100 1.500E-01 0.500 F 0.238 0.063 +21° 31' 26.40" 1.000E-01 0.500 F 0.220 0.000 20.2 V 0.70 -0.26 o 691 0.13 Yes Yes
2016ED85 O C 2016-03-14.49306 1.000E-05 13:26:19.910 1.500E-01 0.500 F 0.294 -0.517 -11° 25' 05.50" 1.000E-01 0.500 F 0.044 0.534 21.7 V 0.70 0.30 o 691 1.49 Yes Yes
2016ED85 O C 2016-03-14.49668 1.000E-05 13:26:19.660 1.500E-01 0.500 F 0.294 -0.349 -11° 25' 05.10" 1.000E-01 0.500 F 0.044 0.176 21.9 V 0.70 0.50 o 691 0.78 Yes Yes
2016ED85 O C 2016-03-14.50031 1.000E-05 13:26:19.410 1.500E-01 0.500 F 0.294 -0.173 -11° 25' 04.40" 1.000E-01 0.500 F 0.044 0.115 21.8 V 0.70 0.40 o 691 0.41 Yes Yes
2016EF86 O C H 2016-03-14.50312 1.000E-05 13:37:57.730 1.500E-01 0.500 F 0.255 -0.497 -07° 47' 05.10" 1.000E-01 0.500 F 0.061 0.493 20.4 V 0.70 0.04 o 691 1.43 Yes Yes
2016EF86 O C H 2016-03-14.50491 1.000E-05 13:37:58.920 1.500E-01 0.500 F 0.255 0.409 -07° 47' 14.70" 1.000E-01 0.500 F 0.061 -0.342 20.1 V 0.70 -0.26 o 691 1.09 Yes Yes
2016EF86 O C H 2016-03-14.50670 1.000E-05 13:38:00.020 1.500E-01 0.500 F 0.255 -0.035 -07° 47' 23.20" 1.000E-01 0.500 F 0.061 -0.078 20.3 V 0.70 -0.06 o 691 0.17 Yes Yes
2016EJ156 O C H 2016-03-15.11768 1.000E-05 09:23:45.550 1.500E-01 0.500 F 0.105 -0.040 +02° 43' 47.80" 1.000E-01 0.500 F 0.118 -0.050 o 691 0.13 Yes No
2016EJ156 O C H 2016-03-15.11975 1.000E-05 09:23:46.390 1.500E-01 0.500 F 0.105 1.037 +02° 43' 34.70" 1.000E-01 0.500 F 0.118 -0.569 o 691 2.44 Yes No
2016EJ156 O C H 2016-03-15.12182 1.000E-05 09:23:47.120 1.500E-01 0.500 F 0.105 0.484 +02° 43' 21.70" 1.000E-01 0.500 F 0.118 -0.989 o 691 2.27 Yes No
2016EJ56 O C H 2016-03-15.12526 1.000E-05 08:26:37.000 1.500E-01 0.500 F 0.136 0.689 +10° 23' 43.80" 1.000E-01 0.500 F 0.005 -3.497 o 691 7.05 No No
2016EJ56 O C H 2016-03-15.12849 1.000E-05 08:26:36.250 1.500E-01 0.500 F 0.136 -0.450 +10° 24' 07.50" 1.000E-01 0.500 F 0.005 -0.458 o 691 1.30 Yes No
2016EJ56 O C H 2016-03-15.13172 1.000E-05 08:26:35.710 1.500E-01 0.500 F 0.136 1.514 +10° 24' 24.80" 1.000E-01 0.500 F 0.005 -3.818 o 691 8.13 No No
2016EB158 O C H 2016-03-15.16409 1.000E-05 11:07:03.390 1.500E-01 0.500 F 0.086 -0.057 +25° 05' 47.90" 1.000E-01 0.500 F 0.061 0.690 21.1 V 0.70 0.09 o 691 1.40 Yes Yes
2016EB158 O C H 2016-03-15.16704 1.000E-05 11:07:02.940 1.500E-01 0.500 F 0.086 0.453 +25° 05' 43.40" 1.000E-01 0.500 F 0.061 0.567 21.5 V 0.70 0.49 o 691 1.47 Yes Yes
2016EB158 O C H 2016-03-15.16998 1.000E-05 11:07:02.440 1.500E-01 0.500 F 0.086 0.264 +25° 05' 39.50" 1.000E-01 0.500 F 0.061 1.030 21.4 V 0.70 0.39 o 691 2.16 Yes Yes
2016EK158 O C H 2016-03-15.23393 1.000E-05 13:12:46.370 1.500E-01 0.500 F 0.137 0.225 +07° 06' 10.50" 1.000E-01 0.500 F 0.322 0.520 21.3 V 0.70 0.51 o 691 1.15 Yes Yes
2016EK158 O C H 2016-03-15.23728 1.000E-05 13:12:45.640 1.500E-01 0.500 F 0.137 -0.382 +07° 06' 08.00" 1.000E-01 0.500 F 0.322 -0.406 21.2 V 0.70 0.41 o 691 1.12 Yes Yes
2016ED158 O C 2016-03-15.27164 1.000E-05 12:05:50.120 1.500E-01 0.500 F 0.247 0.130 -05° 31' 55.90" 1.000E-01 0.500 F 0.153 0.207 20.7 V 0.70 -0.48 o 691 0.49 Yes Yes
2016ED158 O C 2016-03-15.27506 1.000E-05 12:05:49.820 1.500E-01 0.500 F 0.247 -0.019 -05° 32' 02.20" 1.000E-01 0.500 F 0.153 0.184 21.2 V 0.70 0.02 o 691 0.37 Yes Yes
2016ED158 O C 2016-03-15.27848 1.000E-05 12:05:49.510 1.500E-01 0.500 F 0.247 -0.312 -05° 32' 09.50" 1.000E-01 0.500 F 0.153 -0.839 20.6 V 0.70 -0.58 o 691 1.81 Yes Yes
1998SH2 O C 2016-03-15.29902 1.000E-05 11:18:29.090 1.500E-01 0.500 F 0.125 -1.086 +06° 09' 34.70" 1.000E-01 0.500 F 0.306 0.012 21.1 V 0.70 0.05 o 691 2.18 Yes Yes
1998SH2 O C 2016-03-15.30272 1.000E-05 11:18:28.730 1.500E-01 0.500 F 0.125 0.425 +06° 09' 36.90" 1.000E-01 0.500 F 0.306 -0.094 20.7 V 0.70 -0.35 o 691 0.87 Yes Yes
1998SH2 O C 2016-03-15.30644 1.000E-05 11:18:28.260 1.500E-01 0.500 F 0.125 0.333 +06° 09' 38.90" 1.000E-01 0.500 F 0.306 -0.411 20.5 V 0.70 -0.55 o 691 1.06 Yes Yes
1993EA O C 2016-03-15.31119 1.000E-05 13:02:16.310 1.500E-01 0.500 F 0.229 -0.128 +04° 00' 26.10" 1.000E-01 0.500 F 0.272 -0.219 19.1 V 0.70 0.22 o 691 0.51 Yes Yes
1993EA O C 2016-03-15.31489 1.000E-05 13:02:15.930 1.500E-01 0.500 F 0.229 -0.202 +04° 00' 29.30" 1.000E-01 0.500 F 0.272 -0.054 19.1 V 0.70 0.22 o 691 0.42 Yes Yes
1993EA O C 2016-03-15.31858 1.000E-05 13:02:15.540 1.500E-01 0.500 F 0.229 -0.440 +04° 00' 33.10" 1.000E-01 0.500 F 0.272 0.719 19.0 V 0.70 0.12 o 691 1.69 Yes Yes
2016EK27 O C 2016-03-15.33836 1.000E-05 12:18:39.040 1.500E-01 0.500 F 0.482 1.156 -27° 06' 05.70" 1.000E-01 0.500 F 0.300 0.492 20.0 V 0.70 -0.44 o 691 2.52 Yes Yes
2016EK27 O C 2016-03-15.34320 1.000E-05 12:18:39.460 1.500E-01 0.500 F 0.482 -0.123 -27° 06' 13.80" 1.000E-01 0.500 F 0.300 -0.131 20.0 V 0.70 -0.44 o 691 0.36 Yes Yes
2016EK27 O C 2016-03-15.34801 1.000E-05 12:18:40.020 1.500E-01 0.500 F 0.482 0.509 -27° 06' 22.10" 1.000E-01 0.500 F 0.300 -1.013 20.1 V 0.70 -0.34 o 691 2.28 Yes Yes
2005EQ95 O C H 2016-03-15.38783 1.000E-05 11:52:00.870 1.500E-01 0.500 F 0.200 -0.505 -05° 00' 48.30" 1.000E-01 0.500 F 0.268 0.426 20.8 V 0.70 0.11 o 691 1.35 Yes Yes
2005EQ95 O C H 2016-03-15.39025 1.000E-05 11:52:00.690 1.500E-01 0.500 F 0.200 0.633 -05° 00' 43.80" 1.000E-01 0.500 F 0.268 -0.210 20.6 V 0.70 -0.09 o 691 1.36 Yes Yes
2005EQ95 O C H 2016-03-15.39268 1.000E-05 11:52:00.400 1.500E-01 0.500 F 0.200 0.138 -05° 00' 38.80" 1.000E-01 0.500 F 0.268 -0.367 20.6 V 0.70 -0.09 o 691 0.80 Yes Yes
2016ED28 O C H 2016-03-15.44239 1.000E-05 13:21:08.810 1.500E-01 0.500 F 0.096 2.152 -19° 45' 12.90" 1.000E-01 0.500 F -0.159 -0.876 o 691 4.51 No No
2016ED28 O C H 2016-03-15.44550 1.000E-05 13:21:10.850 1.500E-01 0.500 F 0.096 2.383 -19° 45' 11.70" 1.000E-01 0.500 F -0.159 -0.831 o 691 4.91 No No
2016ED28 O C H 2016-03-15.44860 1.000E-05 13:21:12.790 1.500E-01 0.500 F 0.096 1.278 -19° 45' 09.60" 1.000E-01 0.500 F -0.159 0.108 o 691 2.62 Yes No
2016EF86 O C H 2016-03-15.45168 1.000E-05 13:49:05.280 1.500E-01 0.500 F 0.177 0.047 -09° 08' 20.30" 1.000E-01 0.500 F 0.115 -0.462 20.3 V 0.70 -0.02 o 691 0.95 Yes Yes
2016EF86 O C H 2016-03-15.45352 1.000E-05 13:49:06.600 1.500E-01 0.500 F 0.177 1.022 -09° 08' 30.60" 1.000E-01 0.500 F 0.115 -1.060 o 691 3.04 Yes No
2016EF86 O C H 2016-03-15.45538 1.000E-05 13:49:07.800 1.500E-01 0.500 F 0.177 0.009 -09° 08' 39.70" 1.000E-01 0.500 F 0.115 -0.355 20.3 V 0.70 -0.02 o 691 0.73 Yes Yes
2016ES84 O C H 2016-03-15.49153 1.000E-05 14:58:58.020 1.500E-01 0.500 F 0.129 2.161 -03° 45' 21.30" 1.000E-01 0.500 F 0.089 -1.005 o 691 4.71 No No
2016ES84 O C H 2016-03-15.49496 1.000E-05 14:58:57.040 1.500E-01 0.500 F 0.129 1.602 -03° 45' 23.50" 1.000E-01 0.500 F 0.089 -0.976 o 691 3.71 No No
2016EB158 O C H 2016-03-16.23955 1.000E-05 11:04:09.870 1.500E-01 0.500 F 0.086 -0.185 +24° 38' 06.10" 1.000E-01 0.500 F 0.061 -0.807 o 691 1.68 Yes No
2016EB158 O C H 2016-03-16.24250 1.000E-05 11:04:09.440 1.500E-01 0.500 F 0.086 0.680 +24° 38' 01.80" 1.000E-01 0.500 F 0.061 -0.476 o 691 1.68 Yes No
2016EB158 O C H 2016-03-16.24545 1.000E-05 11:04:08.980 1.500E-01 0.500 F 0.086 1.137 +24° 37' 57.30" 1.000E-01 0.500 F 0.061 -0.343 o 691 2.40 Yes No
2016ED158 O C 2016-03-16.32449 1.000E-05 12:04:27.390 1.500E-01 0.500 F 0.223 0.107 -06° 05' 15.90" 1.000E-01 0.500 F 0.122 0.308 21.1 V 0.70 0.05 o 691 0.66 Yes Yes
2016ED158 O C 2016-03-16.32675 1.000E-05 12:04:27.140 1.500E-01 0.500 F 0.223 -0.470 -06° 05' 21.20" 1.000E-01 0.500 F 0.122 -0.533 20.5 V 0.70 -0.55 o 691 1.44 Yes Yes
2016ED158 O C 2016-03-16.32900 1.000E-05 12:04:26.890 1.500E-01 0.500 F 0.223 -1.060 -06° 05' 25.20" 1.000E-01 0.500 F 0.122 -0.094 21.2 V 0.70 0.15 o 691 2.15 Yes Yes
2000ED104 O C 2016-03-16.36594 1.000E-05 12:59:18.260 1.500E-01 0.500 F 0.250 -0.103 -17° 45' 26.80" 1.000E-01 0.500 F 0.060 0.151 18.7 V 0.70 0.55 o 691 0.37 Yes Yes
2000ED104 O C 2016-03-16.36912 1.000E-05 12:59:17.950 1.500E-01 0.500 F 0.250 -0.035 -17° 45' 16.70" 1.000E-01 0.500 F 0.060 -0.053 18.6 V 0.70 0.45 o 691 0.13 Yes Yes
2000ED104 O C 2016-03-16.37230 1.000E-05 12:59:17.630 1.500E-01 0.500 F 0.250 -0.111 -17° 45' 06.30" 1.000E-01 0.500 F 0.060 0.040 18.7 V 0.70 0.55 o 691 0.24 Yes Yes
2016EF195 O C H 2016-03-16.37648 1.000E-05 15:17:38.050 1.500E-01 0.500 F 0.179 -0.304 -13° 16' 37.90" 1.000E-01 0.500 F 0.130 -0.946 o 691 2.00 Yes No
2016EF195 O C H 2016-03-16.37848 1.000E-05 15:17:37.800 1.500E-01 0.500 F 0.179 0.172 -13° 16' 38.00" 1.000E-01 0.500 F 0.130 -0.678 o 691 1.41 Yes No
2016EF195 O C H 2016-03-16.38049 1.000E-05 15:17:37.530 1.500E-01 0.500 F 0.179 0.397 -13° 16' 38.50" 1.000E-01 0.500 F 0.130 -0.818 o 691 1.84 Yes No
2015TJ1 O C H 2016-03-17.10710 1.000E-05 08:15:18.260 1.500E-01 0.500 F -0.016 -0.144 -12° 19' 14.10" 1.000E-01 0.500 F 0.006 -0.079 18.8 V 0.70 -0.16 o 691 0.33 Yes Yes
2015TJ1 O C H 2016-03-17.10889 1.000E-05 08:15:19.180 1.500E-01 0.500 F -0.016 -0.380 -12° 19' 14.40" 1.000E-01 0.500 F 0.006 -0.121 19.1 V 0.70 0.14 o 691 0.81 Yes Yes
2015TJ1 O C H 2016-03-17.11068 1.000E-05 08:15:20.120 1.500E-01 0.500 F -0.016 -0.318 -12° 19' 14.80" 1.000E-01 0.500 F 0.006 -0.266 18.8 V 0.70 -0.16 o 691 0.84 Yes Yes
2014EK24 O C H 2016-03-17.14555 1.000E-05 08:39:47.350 1.500E-01 0.500 F 0.055 -0.112 +02° 41' 26.90" 1.000E-01 0.500 F 0.184 0.159 19.6 V 0.70 0.07 o 691 0.39 Yes Yes
2014EK24 O C H 2016-03-17.14803 1.000E-05 08:39:47.280 1.500E-01 0.500 F 0.055 -0.148 +02° 41' 20.60" 1.000E-01 0.500 F 0.184 0.048 19.8 V 0.70 0.27 o 691 0.31 Yes Yes
2014EK24 O C H 2016-03-17.15052 1.000E-05 08:39:47.210 1.500E-01 0.500 F 0.055 -0.174 +02° 41' 14.00" 1.000E-01 0.500 F 0.184 -0.337 19.7 V 0.70 0.17 o 691 0.76 Yes Yes
2016EZ157 O C H 2016-03-17.15570 1.000E-05 09:17:40.090 1.500E-01 0.500 F 0.092 -0.783 -06° 24' 08.50" 1.000E-01 0.500 F 0.021 -0.748 o 691 2.17 Yes No
2016EZ157 O C H 2016-03-17.16027 1.000E-05 09:17:39.770 1.500E-01 0.500 F 0.092 -0.535 -06° 24' 06.00" 1.000E-01 0.500 F 0.021 -0.221 o 691 1.16 Yes No
2016EZ157 O C H 2016-03-17.16484 1.000E-05 09:17:39.520 1.500E-01 0.500 F 0.092 0.758 -06° 24' 04.20" 1.000E-01 0.500 F 0.021 -0.394 o 691 1.71 Yes No
2015FJ36 O C H 2016-03-17.19029 1.000E-05 09:37:46.160 1.500E-01 0.500 F 0.146 1.250 -04° 56' 52.40" 1.000E-01 0.500 F -0.052 -1.303 o 691 3.59 No No
2015FJ36 O C H 2016-03-17.19485 1.000E-05 09:37:45.770 1.500E-01 0.500 F 0.146 0.197 -04° 56' 45.20" 1.000E-01 0.500 F -0.052 0.320 o 691 0.75 Yes No
2015FJ36 O C H 2016-03-17.19942 1.000E-05 09:37:45.450 1.500E-01 0.500 F 0.146 0.203 -04° 56' 40.40" 1.000E-01 0.500 F -0.052 -0.470 o 691 1.03 Yes No
2016FT3 O C H 2016-03-17.20730 1.000E-05 10:29:17.690 1.500E-01 0.500 F 0.264 0.109 -29° 11' 33.10" 1.000E-01 0.500 F -0.106 -0.311 o 691 0.67 Yes No
2016FT3 O C H 2016-03-17.20956 1.000E-05 10:29:17.620 1.500E-01 0.500 F 0.264 0.374 -29° 11' 26.10" 1.000E-01 0.500 F -0.106 -0.250 o 691 0.91 Yes No
2016FT3 O C H 2016-03-17.21181 1.000E-05 10:29:17.550 1.500E-01 0.500 F 0.264 0.634 -29° 11' 19.20" 1.000E-01 0.500 F -0.106 -0.259 o 691 1.39 Yes No
2016EK27 O C H 2016-03-17.34146 1.000E-05 12:23:03.760 1.500E-01 0.500 F 0.381 0.326 -27° 59' 14.90" 1.000E-01 0.500 F 0.297 -0.627 o 691 1.42 Yes No
2016EK27 O C H 2016-03-17.34395 1.000E-05 12:23:04.040 1.500E-01 0.500 F 0.381 -0.044 -27° 59' 18.60" 1.000E-01 0.500 F 0.297 -0.244 o 691 0.50 Yes No
2016EK27 O C H 2016-03-17.34643 1.000E-05 12:23:04.370 1.500E-01 0.500 F 0.381 0.263 -27° 59' 23.30" 1.000E-01 0.500 F 0.297 -0.881 o 691 1.85 Yes No
2005EW169 O C H 2016-03-17.35104 1.000E-05 12:23:44.910 1.500E-01 0.500 F 0.096 0.257 -05° 10' 16.80" 1.000E-01 0.500 F 0.116 -0.299 o 691 0.79 Yes No
2005EW169 O C H 2016-03-17.35445 1.000E-05 12:23:44.560 1.500E-01 0.500 F 0.096 -0.360 -05° 10' 14.70" 1.000E-01 0.500 F 0.116 -0.458 o 691 1.17 Yes No
2005EW169 O C H 2016-03-17.35787 1.000E-05 12:23:44.340 1.500E-01 0.500 F 0.096 0.979 -05° 10' 12.80" 1.000E-01 0.500 F 0.116 -0.824 o 691 2.57 Yes No
2016FF1 O C H 2016-03-17.36497 1.000E-05 12:55:28.520 1.500E-01 0.500 F 0.317 0.394 -28° 28' 20.60" 1.000E-01 0.500 F 0.188 -0.908 o 691 2.00 Yes No
2016FF1 O C H 2016-03-17.36700 1.000E-05 12:55:29.380 1.500E-01 0.500 F 0.317 0.714 -28° 28' 10.30" 1.000E-01 0.500 F 0.188 -0.481 o 691 1.74 Yes No
2016FF1 O C H 2016-03-17.36902 1.000E-05 12:55:30.210 1.500E-01 0.500 F 0.317 0.692 -28° 28' 00.30" 1.000E-01 0.500 F 0.188 -0.313 o 691 1.54 Yes No
2015XA379 O C H 2016-03-17.39173 1.000E-05 13:59:44.530 1.500E-01 0.500 F 0.117 -0.666 -00° 51' 29.10" 1.000E-01 0.500 F 0.223 0.113 20.8 V 0.70 -0.23 o 691 1.36 Yes Yes
2015XA379 O C H 2016-03-17.39885 1.000E-05 13:59:44.360 1.500E-01 0.500 F 0.117 0.080 -00° 51' 28.00" 1.000E-01 0.500 F 0.223 -0.207 20.7 V 0.70 -0.33 o 691 0.45 Yes Yes
2015XA379 O C H 2016-03-17.40596 1.000E-05 13:59:44.140 1.500E-01 0.500 F 0.117 0.084 -00° 51' 26.50" 1.000E-01 0.500 F 0.223 -0.129 20.7 V 0.70 -0.33 o 691 0.31 Yes Yes
2016FF1 O C H 2016-03-18.39685 1.000E-05 13:03:07.860 1.500E-01 0.500 F 0.310 -0.088 -27° 01' 52.40" 1.000E-01 0.500 F 0.218 -0.718 o 691 1.46 Yes No
2016FF1 O C H 2016-03-18.39887 1.000E-05 13:03:08.610 1.500E-01 0.500 F 0.310 -1.234 -27° 01' 42.40" 1.000E-01 0.500 F 0.218 -1.299 o 691 3.54 No No
2016FF1 O C H 2016-03-18.40089 1.000E-05 13:03:09.520 1.500E-01 0.500 F 0.310 -0.245 -27° 01' 30.90" 1.000E-01 0.500 F 0.218 -0.385 o 691 0.92 Yes No
2016EF195 O C 2016-03-18.43033 1.000E-05 15:16:31.170 1.500E-01 0.500 F 0.121 0.190 -13° 15' 37.10" 1.000E-01 0.500 F 0.125 -0.155 20.3 V 0.70 -0.07 o 691 0.50 Yes Yes
2016EF195 O C 2016-03-18.43328 1.000E-05 15:16:30.780 1.500E-01 0.500 F 0.121 -0.653 -13° 15' 36.10" 1.000E-01 0.500 F 0.125 0.864 20.1 V 0.70 -0.27 o 691 2.20 Yes Yes
2016EF195 O C 2016-03-18.43622 1.000E-05 15:16:30.530 1.500E-01 0.500 F 0.121 0.538 -13° 15' 36.20" 1.000E-01 0.500 F 0.125 0.767 19.9 V 0.70 -0.47 o 691 1.89 Yes Yes
2016ED195 O C H 2016-03-18.45146 1.000E-05 15:47:06.280 1.500E-01 0.500 F 0.151 0.020 +10° 55' 34.10" 1.000E-01 0.500 F 0.294 -0.118 20.3 V 0.70 0.01 o 691 0.24 Yes Yes
2016ED195 O C H 2016-03-18.45395 1.000E-05 15:47:06.650 1.500E-01 0.500 F 0.151 -0.420 +10° 55' 42.10" 1.000E-01 0.500 F 0.294 -0.660 20.3 V 0.70 0.01 o 691 1.57 Yes Yes
2016ED195 O C H 2016-03-18.45644 1.000E-05 15:47:07.080 1.500E-01 0.500 F 0.151 0.024 +10° 55' 51.60" 1.000E-01 0.500 F 0.294 0.298 20.2 V 0.70 -0.09 o 691 0.60 Yes Yes
2014JY24 O C H 2016-03-18.51931 1.000E-05 18:07:08.070 1.500E-01 0.500 F -0.017 -0.382 +14° 52' 42.50" 1.000E-01 0.500 F 0.308 0.343 20.6 V 0.70 1.08 o 691 1.03 Yes Yes
2014JY24 O C H 2016-03-18.52180 1.000E-05 18:07:07.740 1.500E-01 0.500 F -0.017 -0.313 +14° 52' 40.50" 1.000E-01 0.500 F 0.308 0.051 20.7 V 0.70 1.18 o 691 0.64 Yes Yes
2014JY24 O C H 2016-03-18.52429 1.000E-05 18:07:07.390 1.500E-01 0.500 F -0.017 -0.533 +14° 52' 39.00" 1.000E-01 0.500 F 0.308 0.259 20.5 V 0.70 0.98 o 691 1.19 Yes Yes
2015TJ1 O C H 2016-03-19.11613 1.000E-05 08:33:24.270 1.500E-01 0.500 F -0.037 -0.724 -12° 19' 32.00" 1.000E-01 0.500 F 0.087 -1.071 o 691 2.60 Yes No
2015TJ1 O C H 2016-03-19.11885 1.000E-05 08:33:25.650 1.500E-01 0.500 F -0.037 0.419 -12° 19' 31.70" 1.000E-01 0.500 F 0.087 -0.831 o 691 1.87 Yes No
2015TJ1 O C H 2016-03-19.12156 1.000E-05 08:33:27.070 1.500E-01 0.500 F -0.037 2.230 -12° 19' 31.50" 1.000E-01 0.500 F 0.087 -0.698 o 691 4.63 No No
2015FJ36 O C H 2016-03-19.19671 1.000E-05 09:36:01.600 1.500E-01 0.500 F 0.100 -0.077 -04° 17' 17.60" 1.000E-01 0.500 F -0.048 -0.150 o 691 0.34 Yes No
2015FJ36 O C H 2016-03-19.20128 1.000E-05 09:36:01.330 1.500E-01 0.500 F 0.100 -0.216 -04° 17' 13.10" 1.000E-01 0.500 F -0.048 -0.852 o 691 1.76 Yes No
2015FJ36 O C H 2016-03-19.20585 1.000E-05 09:36:01.100 1.500E-01 0.500 F 0.100 0.245 -04° 17' 07.70" 1.000E-01 0.500 F -0.048 -0.656 o 691 1.41 Yes No
2016EK27 O C H 2016-03-19.33679 1.000E-05 12:28:09.090 1.500E-01 0.500 F 0.475 0.410 -28° 55' 44.40" 1.000E-01 0.500 F 0.212 -0.680 o 691 1.60 Yes No
2016EK27 O C H 2016-03-19.33997 1.000E-05 12:28:09.570 1.500E-01 0.500 F 0.475 0.646 -28° 55' 50.30" 1.000E-01 0.500 F 0.212 -0.989 o 691 2.37 Yes No
2016EK27 O C H 2016-03-19.34315 1.000E-05 12:28:10.020 1.500E-01 0.500 F 0.475 0.487 -28° 55' 55.40" 1.000E-01 0.500 F 0.212 -0.505 o 691 1.41 Yes No
2013CQ35 O C H 2016-03-19.34826 1.000E-05 12:25:32.180 1.500E-01 0.500 F 0.052 -1.634 -12° 12' 09.70" 1.000E-01 0.500 F 0.034 0.193 o 691 3.27 No No
2013CQ35 O C H 2016-03-19.35283 1.000E-05 12:25:31.680 1.500E-01 0.500 F 0.052 0.187 -12° 12' 09.40" 1.000E-01 0.500 F 0.034 -0.516 o 691 1.10 Yes No
2013CQ35 O C H 2016-03-19.35740 1.000E-05 12:25:31.050 1.500E-01 0.500 F 0.052 0.102 -12° 12' 08.30" 1.000E-01 0.500 F 0.034 -0.427 o 691 0.88 Yes No
2016FC O C H 2016-03-19.36488 1.000E-05 13:39:23.020 1.500E-01 0.500 F 0.104 1.514 -15° 17' 11.40" 1.000E-01 0.500 F 0.157 -0.973 o 691 3.51 No No
2016FC O C H 2016-03-19.36714 1.000E-05 13:39:21.120 1.500E-01 0.500 F 0.104 -0.142 -15° 17' 03.20" 1.000E-01 0.500 F 0.157 -0.114 o 691 0.37 Yes No
2016FC O C H 2016-03-19.36940 1.000E-05 13:39:19.410 1.500E-01 0.500 F 0.104 0.944 -15° 16' 56.40" 1.000E-01 0.500 F 0.157 -0.668 o 691 2.37 Yes No
2016EB156 O C m 2016-03-19.45505 1.000E-05 16:22:31.280 1.500E-01 0.500 F 0.010 -0.075 -18° 14' 13.60" 1.000E-01 0.500 F 0.092 -0.217 o 691 0.47 Yes No
2016EB156 O C m 2016-03-19.46032 1.000E-05 16:22:32.610 1.500E-01 0.500 F 0.010 -1.366 -18° 14' 22.80" 1.000E-01 0.500 F 0.092 -0.415 o 691 2.94 Yes No
2016EB156 O C m 2016-03-19.46558 1.000E-05 16:22:34.090 1.500E-01 0.500 F 0.010 -0.479 -18° 14' 31.80" 1.000E-01 0.500 F 0.092 -0.435 o 691 1.32 Yes No
2016EN84 O C H 2016-03-19.47201 1.000E-05 16:14:53.730 1.500E-01 0.500 F 0.059 1.844 -02° 31' 17.30" 1.000E-01 0.500 F 0.329 -0.199 o 691 3.64 No No
2016EN84 O C H 2016-03-19.47450 1.000E-05 16:14:54.170 1.500E-01 0.500 F 0.059 0.704 -02° 31' 20.60" 1.000E-01 0.500 F 0.329 -1.178 o 691 2.79 Yes No
2016EN84 O C H 2016-03-19.47698 1.000E-05 16:14:54.680 1.500E-01 0.500 F 0.059 0.645 -02° 31' 22.70" 1.000E-01 0.500 F 0.329 -0.967 o 691 2.36 Yes No
2009SM O C H 2016-03-19.48134 1.000E-05 16:09:53.970 1.500E-01 0.500 F 0.156 -0.568 -25° 49' 40.60" 1.000E-01 0.500 F 0.381 0.031 o 691 1.38 Yes No
2009SM O C H 2016-03-19.48521 1.000E-05 16:09:54.460 1.500E-01 0.500 F 0.156 0.957 -25° 49' 48.60" 1.000E-01 0.500 F 0.381 -1.473 o 691 3.12 No No
2016EF86 O C H 2016-03-19.49752 1.000E-05 14:48:23.270 1.500E-01 0.500 F 0.082 2.510 -15° 48' 03.40" 1.000E-01 0.500 F 0.048 -2.310 o 691 6.29 No No
2016EF86 O C H 2016-03-19.49931 1.000E-05 14:48:24.810 1.500E-01 0.500 F 0.082 -0.476 -15° 48' 12.90" 1.000E-01 0.500 F 0.048 -0.627 o 691 1.72 Yes No
2016EF86 O C H 2016-03-19.50111 1.000E-05 14:48:26.300 1.500E-01 0.500 F 0.082 -4.335 -15° 48' 21.90" 1.000E-01 0.500 F 0.048 1.614 o 691 8.44 No No
2016ED28 O C H 2016-03-19.50386 1.000E-05 14:15:02.940 1.500E-01 0.500 F 0.262 0.140 -18° 42' 18.40" 1.000E-01 0.500 F 0.047 -0.181 o 691 0.47 Yes No
2016ED28 O C H 2016-03-19.50542 1.000E-05 14:15:04.310 1.500E-01 0.500 F 0.262 -0.192 -18° 42' 16.00" 1.000E-01 0.500 F 0.047 -0.530 o 691 1.17 Yes No

[1-200] [201-400] [401-600] [601-800] [801-1000] [1001-1200] [1201-1400] [1401-1600] [1601-1800] [1801-2000] [2001-2200] [2201-2400] [2401-2600] [2601-2800] [2801-3000] [3001-3200] [3201-3400] [3401-3600] [3601-3800] [3801-4000] [4001-4200] [4201-4400] [4401-4600] [4601-4800] [4801-5000] [5001-5200] [5201-5400] [5401-5600] [5601-5800] [5801-6000] [6001-6200] [6201-6400] [6401-6600] [6601-6800] [6801-7000] [7001-7200] [7201-7400] [7401-7600] [7601-7800] [7801-8000] [8001-8200] [8201-8400] [8401-8600] [8601-8800] [8801-9000] [9001-9200] [9201-9400] [9401-9600] [9601-9800] [9801-10000] [10001-10200] [10201-10400] [10401-10600] [10601-10800] [10801-11000] [11001-11200] [11201-11400] [11401-11600] [11601-11800] [11801-12000] [12001-12200] [12201-12400] [12401-12600] [12601-12800] [12801-13000] [13001-13200] [13201-13400] [13401-13600] [13601-13800] [13801-14000] [14001-14200] [14201-14400] [14401-14600] [14601-14800] [14801-15000] [15001-15200] [15201-15400] [15401-15600] [15601-15800] [15801-16000] [16001-16200] [16201-16400] [16401-16600] [16601-16800] [16801-17000] [17001-17200] [17201-17400] [17401-17600] [17601-17800] [17801-18000] [18001-18200] [18201-18400] [18401-18600] [18601-18800] [18801-19000] [19001-19200] [19201-19400] [19401-19600] [19601-19800] [19801-20000] [20001-20200] [20201-20400] [20401-20600] [20601-20800] [20801-21000] [21001-21200] [21201-21400] [21401-21600] [21601-21800] [21801-22000] [22001-22200] [22201-22400] [22401-22600] [22601-22800] [22801-23000] [23001-23200] [23201-23400] [23401-23600] [23601-23800] [23801-24000] [24001-24200] [24201-24400] [24401-24600] [24601-24800] [24801-25000] [25001-25200] [25201-25400] [25401-25600] [25601-25800] [25801-26000] [26001-26200] [26201-26400] [26401-26600] [26601-26800] [26801-27000] [27001-27200] [27201-27400] [27401-27600] [27601-27800] [27801-28000] [28001-28200] [28201-28400] [28401-28600] [28601-28800] [28801-29000] [29001-29200] [29201-29400] [29401-29600] [29601-29800] [29801-30000] [30001-30200] [30201-30400] [30401-30600] [30601-30800] [30801-31000] [31001-31200] [31201-31400] [31401-31600] [31601-31800] [31801-32000] [32001-32200] [32201-32400] [32401-32600] [32601-32800] [32801-33000] [33001-33200] [33201-33400] [33401-33600] [33601-33800] [33801-34000] [34001-34200] [34201-34400] [34401-34600] [34601-34800] [34801-35000] [35001-35200] [35201-35400] [35401-35600] [35601-35800] [35801-36000] [36001-36200] [36201-36400] [36401-36600] [36601-36800] [36801-37000] [37001-37200] [37201-37400] [37401-37600] [37601-37800] [37801-38000] [38001-38200] [38201-38400] [38401-38600] [38601-38800] [38801-39000] [39001-39200] [39201-39400] [39401-39600] [39601-39800] [39801-40000] [40001-40200] [40201-40400] [40401-40600] [40601-40800] [40801-41000] [41001-41200] [41201-41400] [41401-41600] [41601-41800] [41801-42000] [42001-42200] [42201-42400] [42401-42600] [42601-42800] [42801-43000] [43001-43200] [43201-43400] [43401-43600] [43601-43800] [43801-44000] [44001-44200] [44201-44400] [44401-44600] [44601-44800] [44801-45000] [45001-45200] [45201-45400] [45401-45600] [45601-45800] [45801-46000] [46001-46200] [46201-46400] [46401-46600] [46601-46800] [46801-47000] [47001-47200] [47201-47400] [47401-47600] [47601-47800] [47801-48000] [48001-48200] [48201-48400] [48401-48600] [48601-48800] [48801-49000] [49001-49200] [49201-49400] [49401-49600] [49601-49800] [49801-50000] [50001-50200] [50201-50388]